Time;durP1;ratioP1;P1;durP2;ratioP2;P2;SDS_P1;SDS_P2;PMS_P1;PMS_P2;Temp;Humidity;BMP_temperature;BMP_pressure;BME280_temperature;BME280_humidity;BME280_pressure;Samples;Min_cycle;Max_cycle;Signal;HPM_P1;HPM_P2
2023/09/20 00:01:47;;;;;;;4.97;1.73;;;15.10;99.90;;;;;;5104539;28;20023;-68
2023/09/20 00:04:13;;;;;;;2.35;1.35;;;15.10;99.90;;;;;;5107196;28;20448;-68
2023/09/20 00:06:39;;;;;;;2.47;1.83;;;15.10;99.90;;;;;;5108128;28;20468;-68
2023/09/20 00:09:05;;;;;;;2.92;1.67;;;15.10;99.90;;;;;;5093448;28;20028;-68
2023/09/20 00:11:30;;;;;;;5.72;1.60;;;15.10;99.90;;;;;;5103258;28;20028;-69
2023/09/20 00:13:58;;;;;;;2.00;1.30;;;15.20;99.90;;;;;;5096208;28;20036;-69
2023/09/20 00:16:24;;;;;;;4.10;1.55;;;15.30;99.90;;;;;;5098788;28;20031;-69
2023/09/20 00:18:49;;;;;;;2.05;1.58;;;15.40;99.90;;;;;;5097171;28;20034;-68
2023/09/20 00:21:15;;;;;;;2.50;1.40;;;15.50;99.90;;;;;;5108581;28;20035;-68
2023/09/20 00:23:41;;;;;;;2.47;1.40;;;15.40;99.90;;;;;;5099434;28;20040;-68
2023/09/20 00:26:07;;;;;;;3.65;1.67;;;15.50;99.90;;;;;;5098243;28;20024;-69
2023/09/20 00:28:33;;;;;;;2.53;1.35;;;15.50;99.90;;;;;;5102909;28;20089;-69
2023/09/20 00:30:59;;;;;;;4.20;1.65;;;15.40;99.90;;;;;;5101505;28;20024;-70
2023/09/20 00:33:27;;;;;;;4.50;1.70;;;15.40;99.90;;;;;;5094460;28;20029;-68
2023/09/20 00:35:53;;;;;;;2.38;1.88;;;15.40;99.90;;;;;;5097864;28;20115;-68
2023/09/20 00:38:18;;;;;;;2.55;1.85;;;15.40;99.90;;;;;;5106066;28;20650;-69
2023/09/20 00:40:44;;;;;;;4.55;2.65;;;15.40;99.90;;;;;;5093514;28;20028;-68
2023/09/20 00:43:12;;;;;;;6.28;2.60;;;15.40;99.90;;;;;;5093866;28;20384;-68
2023/09/20 00:45:40;;;;;;;4.03;2.25;;;15.40;99.90;;;;;;5103788;28;20424;-69
2023/09/20 00:48:07;;;;;;;7.13;3.40;;;15.40;99.90;;;;;;5107824;28;20027;-69
2023/09/20 00:50:35;;;;;;;7.45;4.45;;;15.30;99.90;;;;;;5096080;28;20076;-68
2023/09/20 00:53:06;;;;;;;10.25;4.55;;;15.30;99.90;;;;;;5096616;28;20499;-69
2023/09/20 00:55:34;;;;;;;10.02;4.55;;;15.30;99.90;;;;;;5107353;28;20024;-68
2023/09/20 00:58:07;;;;;;;9.15;5.03;;;15.20;99.90;;;;;;5110259;28;20032;-69
2023/09/20 01:00:33;;;;;;;12.82;4.70;;;15.20;99.90;;;;;;5097746;28;20039;-69
2023/09/20 01:03:01;;;;;;;9.45;4.65;;;15.10;99.90;;;;;;5104337;28;20487;-70
2023/09/20 01:05:27;;;;;;;6.35;3.65;;;15.00;99.90;;;;;;5112951;28;20028;-69
2023/09/20 01:07:56;;;;;;;10.15;4.47;;;14.90;99.90;;;;;;5103064;28;20040;-68
2023/09/20 01:10:26;;;;;;;8.65;4.82;;;14.80;99.90;;;;;;5104810;28;20077;-68
2023/09/20 01:13:04;;;;;;;5.82;3.38;;;14.70;99.90;;;;;;5091156;28;20380;-68
2023/09/20 01:15:31;;;;;;;5.07;2.50;;;14.60;99.90;;;;;;5103685;28;20480;-69
2023/09/20 01:17:58;;;;;;;3.15;2.08;;;14.50;99.90;;;;;;5099294;28;20481;-69
2023/09/20 01:20:25;;;;;;;3.55;2.00;;;;;;;;;;5106837;28;20035;-68
2023/09/20 01:22:54;;;;;;;3.97;2.05;;;14.50;99.90;;;;;;5111192;28;20106;-68
2023/09/20 01:25:30;;;;;;;8.82;3.28;;;14.50;99.90;;;;;;5104900;28;20047;-68
2023/09/20 01:28:01;;;;;;;10.02;4.00;;;14.50;99.90;;;;;;5106295;28;20024;-69
2023/09/20 01:30:31;;;;;;;11.23;3.83;;;14.60;99.90;;;;;;5105480;28;20097;-69
2023/09/20 01:33:02;;;;;;;6.65;3.90;;;14.50;99.90;;;;;;5093455;28;20228;-70
2023/09/20 01:35:29;;;;;;;8.55;3.58;;;14.50;99.90;;;;;;5100364;28;20059;-69
2023/09/20 01:37:55;;;;;;;10.13;3.45;;;14.40;99.90;;;;;;5102264;28;20028;-68
2023/09/20 01:40:25;;;;;;;7.97;3.47;;;;;;;;;;5093995;28;20032;-69
2023/09/20 01:42:52;;;;;;;5.13;2.40;;;;;;;;;;5095152;28;20495;-69
2023/09/20 01:45:18;;;;;;;4.05;2.80;;;;;;;;;;5087845;28;20101;-69
2023/09/20 01:47:49;;;;;;;3.88;2.50;;;;;;;;;;5066253;28;20032;-68
2023/09/20 01:50:25;;;;;;;4.00;2.55;;;;;;;;;;5049199;28;20520;-68
2023/09/20 01:52:52;;;;;;;6.30;3.20;;;;;;;;;;5072939;28;20048;-68
2023/09/20 01:55:20;;;;;;;5.63;2.90;;;;;;;;;;5070497;28;20024;-69
2023/09/20 01:57:50;;;;;;;8.57;2.80;;;;;;;;;;5065952;28;20068;-68
2023/09/20 02:00:21;;;;;;;5.10;3.33;;;13.80;99.90;;;;;;5070056;28;20020;-68
2023/09/20 02:02:51;;;;;;;6.55;2.90;;;13.70;99.90;;;;;;5068065;28;20090;-69
2023/09/20 02:05:17;;;;;;;6.43;3.50;;;13.70;99.90;;;;;;5066811;28;20116;-68
2023/09/20 02:07:47;;;;;;;7.10;2.75;;;13.70;99.90;;;;;;5067087;28;20036;-69
2023/09/20 02:10:14;;;;;;;5.68;2.85;;;13.60;99.90;;;;;;5065022;28;20028;-68
2023/09/20 02:12:44;;;;;;;9.75;3.10;;;13.50;99.90;;;;;;5069170;28;20032;-68
2023/09/20 02:15:11;;;;;;;4.07;2.67;;;13.50;99.90;;;;;;5067141;28;20469;-69
2023/09/20 02:17:37;;;;;;;4.72;2.97;;;13.40;99.90;;;;;;5076268;28;20037;-68
2023/09/20 02:20:11;;;;;;;4.75;3.00;;;;;;;;;;5071285;28;20090;-69
2023/09/20 02:22:40;;;;;;;5.88;2.35;;;;;;;;;;5080939;28;20020;-68
2023/09/20 02:25:11;;;;;;;6.10;3.20;;;;;;;;;;5072239;28;20023;-68
2023/09/20 02:27:38;;;;;;;3.08;2.40;;;;;;;;;;5074588;28;20384;-68
2023/09/20 02:30:05;;;;;;;3.63;2.67;;;;;;;;;;5064813;28;20041;-68
2023/09/20 02:32:31;;;;;;;6.40;2.50;;;;;;;;;;5065170;28;20085;-68
2023/09/20 02:34:59;;;;;;;4.72;2.90;;;;;;;;;;5067373;28;20042;-69
2023/09/20 02:37:25;;;;;;;2.60;2.30;;;;;;;;;;5068598;28;20059;-68
2023/09/20 02:39:51;;;;;;;4.60;2.78;;;;;;;;;;5064466;28;20167;-68
2023/09/20 02:42:18;;;;;;;4.15;2.63;;;;;;;;;;5067063;28;20104;-69
2023/09/20 02:44:45;;;;;;;5.78;2.80;;;;;;;;;;5069926;28;20050;-69
2023/09/20 02:47:11;;;;;;;5.32;2.83;;;;;;;;;;5067992;28;20028;-69
2023/09/20 02:49:40;;;;;;;4.32;2.95;;;;;;;;;;5066501;28;20040;-69
2023/09/20 02:52:06;;;;;;;4.80;2.88;;;;;;;;;;5068974;28;20056;-69
2023/09/20 02:54:32;;;;;;;5.75;3.08;;;;;;;;;;5067987;28;20017;-69
2023/09/20 02:56:59;;;;;;;4.13;2.72;;;;;;;;;;5068033;28;20042;-69
2023/09/20 02:59:25;;;;;;;3.70;2.63;;;;;;;;;;5073186;28;20560;-68
2023/09/20 03:01:52;;;;;;;4.57;2.42;;;;;;;;;;5070779;28;20020;-68
2023/09/20 03:04:18;;;;;;;7.22;3.33;;;;;;;;;;5063770;28;20017;-68
2023/09/20 03:06:44;;;;;;;5.53;3.53;;;;;;;;;;5069301;28;20017;-68
2023/09/20 03:09:11;;;;;;;6.05;3.20;;;;;;;;;;5076578;28;20400;-69
2023/09/20 03:11:37;;;;;;;6.30;3.33;;;;;;;;;;5082732;28;20020;-69
2023/09/20 03:14:08;;;;;;;4.80;2.65;;;;;;;;;;5078427;28;20030;-69
2023/09/20 03:16:35;;;;;;;4.15;2.30;;;;;;;;;;5076047;28;20055;-69
2023/09/20 03:19:01;;;;;;;4.63;2.75;;;;;;;;;;5078244;28;20385;-69
2023/09/20 03:21:28;;;;;;;5.60;3.33;;;;;;;;;;5089666;28;20046;-68
2023/09/20 03:23:55;;;;;;;5.90;2.78;;;;;;;;;;5078102;28;20066;-69
2023/09/20 03:26:21;;;;;;;6.25;3.25;;;;;;;;;;5081152;28;20055;-69
2023/09/20 03:28:48;;;;;;;5.50;2.83;;;;;;;;;;5082009;28;20079;-68
2023/09/20 03:31:15;;;;;;;5.68;3.15;;;;;;;;;;5086395;28;20103;-69
2023/09/20 03:33:42;;;;;;;3.88;2.90;;;;;;;;;;5064217;28;20028;-68
2023/09/20 03:36:15;;;;;;;6.13;2.67;;;;;;;;;;5062286;28;20549;-69
2023/09/20 03:38:41;;;;;;;7.88;3.08;;;;;;;;;;5062105;28;20039;-69
2023/09/20 03:41:07;;;;;;;6.55;3.33;;;;;;;;;;5062775;28;20021;-69
2023/09/20 03:43:33;;;;;;;7.90;3.92;;;;;;;;;;5063335;28;20101;-69
2023/09/20 03:46:01;;;;;;;8.43;3.75;;;;;;;;;;5071154;28;20455;-70
2023/09/20 03:48:27;;;;;;;12.63;3.85;;;;;;;;;;5071309;28;21081;-69
2023/09/20 03:50:53;;;;;;;7.95;3.63;;;;;;;;;;5075519;28;20031;-69
2023/09/20 03:53:20;;;;;;;9.60;3.72;;;;;;;;;;5079383;28;20618;-69
2023/09/20 03:55:48;;;;;;;5.15;3.38;;;;;;;;;;5078789;28;20035;-69
2023/09/20 03:58:15;;;;;;;8.10;3.67;;;;;;;;;;5072991;28;20052;-69
2023/09/20 04:00:42;;;;;;;9.55;4.40;;;;;;;;;;5078837;28;20028;-69
2023/09/20 04:03:10;;;;;;;6.28;3.38;;;;;;;;;;5081041;28;20028;-69
2023/09/20 04:05:37;;;;;;;10.85;3.40;;;;;;;;;;5074357;28;20035;-70
2023/09/20 04:08:06;;;;;;;7.82;3.63;;;;;;;;;;5078044;28;20032;-70
2023/09/20 04:10:33;;;;;;;7.50;3.40;;;;;;;;;;5075767;28;20350;-70
2023/09/20 04:12:59;;;;;;;6.35;3.30;;;;;;;;;;5085192;28;20024;-70
2023/09/20 04:15:26;;;;;;;7.20;3.38;;;;;;;;;;5081338;28;20063;-70
2023/09/20 04:17:52;;;;;;;5.97;3.50;;;;;;;;;;5084176;28;20016;-70
2023/09/20 04:20:22;;;;;;;5.20;3.08;;;;;;;;;;5077438;28;20318;-70
2023/09/20 04:22:49;;;;;;;8.25;4.05;;;;;;;;;;5080243;28;20419;-70
2023/09/20 04:25:16;;;;;;;6.85;3.53;;;;;;;;;;5062885;28;20025;-70
2023/09/20 04:27:43;;;;;;;7.47;3.53;;;;;;;;;;5063076;28;20021;-69
2023/09/20 04:30:09;;;;;;;5.85;2.72;;;;;;;;;;5070735;28;20049;-70
2023/09/20 04:32:36;;;;;;;5.25;3.42;;;;;;;;;;5082150;28;20020;-70
2023/09/20 04:35:04;;;;;;;7.30;3.20;;;;;;;;;;5073169;28;20027;-70
2023/09/20 04:37:32;;;;;;;6.95;3.35;;;;;;;;;;5086534;28;20085;-70
2023/09/20 04:39:58;;;;;;;5.68;2.97;;;;;;;;;;5080587;28;20024;-70
2023/09/20 04:42:24;;;;;;;5.22;2.67;;;;;;;;;;5079644;28;20021;-70
2023/09/20 04:44:51;;;;;;;4.25;2.67;;;;;;;;;;5085736;28;20399;-70
2023/09/20 04:47:17;;;;;;;5.32;2.95;;;;;;;;;;5092069;28;20107;-70
2023/09/20 04:49:44;;;;;;;5.60;3.25;;;;;;;;;;5082835;28;20032;-69
2023/09/20 04:52:11;;;;;;;4.32;2.47;;;;;;;;;;5085038;28;20066;-70
2023/09/20 04:54:37;;;;;;;3.83;2.90;;;12.10;99.90;;;;;;5084343;28;20012;-70
2023/09/20 04:57:04;;;;;;;5.30;2.83;;;12.20;99.90;;;;;;5086074;28;20025;-70
2023/09/20 04:59:31;;;;;;;5.22;3.40;;;12.10;99.90;;;;;;5077514;28;20032;-70
2023/09/20 05:01:57;;;;;;;5.40;2.85;;;12.00;99.90;;;;;;5080972;28;20025;-71
2023/09/20 05:04:23;;;;;;;6.78;3.72;;;11.90;99.90;;;;;;5089027;28;20040;-69
2023/09/20 05:06:49;;;;;;;4.95;3.55;;;11.90;99.90;;;;;;5090355;28;20025;-69
2023/09/20 05:09:15;;;;;;;7.55;3.42;;;11.80;99.90;;;;;;5078721;28;20111;-69
2023/09/20 05:11:41;;;;;;;5.03;2.97;;;11.80;99.90;;;;;;5089497;28;20492;-69
2023/09/20 05:14:06;;;;;;;7.97;3.70;;;11.80;99.90;;;;;;5081586;28;20029;-69
2023/09/20 05:16:32;;;;;;;4.32;3.10;;;11.80;99.90;;;;;;5079178;28;20028;-70
2023/09/20 05:18:58;;;;;;;6.10;3.25;;;11.80;99.90;;;;;;5081386;28;20476;-70
2023/09/20 05:21:24;;;;;;;3.97;3.30;;;11.80;99.90;;;;;;5090952;28;20043;-68
2023/09/20 05:23:49;;;;;;;8.35;3.75;;;11.90;99.90;;;;;;5080748;28;20033;-69
2023/09/20 05:26:15;;;;;;;7.57;3.15;;;11.80;99.90;;;;;;5083804;28;20036;-69
2023/09/20 05:28:40;;;;;;;4.97;3.13;;;11.80;99.90;;;;;;5076880;28;20025;-68
2023/09/20 05:31:06;;;;;;;5.68;3.17;;;11.90;99.90;;;;;;5088559;28;20141;-69
2023/09/20 05:33:32;;;;;;;5.18;3.15;;;12.00;99.90;;;;;;5083253;28;20111;-69
2023/09/20 05:35:58;;;;;;;4.95;2.97;;;12.00;99.90;;;;;;5076966;28;20028;-69
2023/09/20 05:38:27;;;;;;;4.00;2.75;;;12.00;99.90;;;;;;5085785;28;20039;-68
2023/09/20 05:40:53;;;;;;;5.85;3.70;;;12.00;99.90;;;;;;5072565;28;20047;-73
2023/09/20 05:43:19;;;;;;;4.90;3.20;;;12.10;99.90;;;;;;5073230;28;20107;-65
2023/09/20 05:45:44;;;;;;;6.25;3.67;;;12.10;99.90;;;;;;5085736;28;20127;-65
2023/09/20 05:48:10;;;;;;;5.05;3.47;;;12.30;99.90;;;;;;5074541;28;20120;-65
2023/09/20 05:50:36;;;;;;;9.18;3.63;;;12.40;99.90;;;;;;5075043;28;20025;-65
2023/09/20 05:53:06;;;;;;;6.18;3.55;;;12.50;99.90;;;;;;5076943;28;20024;-66
2023/09/20 05:55:38;;;;;;;8.75;4.07;;;12.60;99.90;;;;;;5070753;28;20473;-65
2023/09/20 05:58:04;;;;;;;11.65;3.95;;;12.70;99.90;;;;;;5078752;28;20060;-65
2023/09/20 06:00:30;;;;;;;7.13;3.53;;;12.80;99.90;;;;;;5081100;28;20040;-65
2023/09/20 06:02:59;;;;;;;9.23;3.38;;;12.90;99.90;;;;;;5084025;28;20111;-66
2023/09/20 06:05:28;;;;;;;7.53;3.25;;;13.00;99.90;;;;;;5089549;28;20461;-65
2023/09/20 06:07:54;;;;;;;5.03;2.63;;;13.20;99.90;;;;;;5079638;28;20035;-64
2023/09/20 06:10:22;;;;;;;6.95;2.85;;;13.40;99.90;;;;;;5083392;28;20317;-65
2023/09/20 06:12:49;;;;;;;3.70;2.25;;;13.70;99.90;;;;;;5086867;28;20024;-65
2023/09/20 06:15:15;;;;;;;5.57;3.00;;;14.00;99.90;;;;;;5074512;28;20335;-65
2023/09/20 06:17:47;;;;;;;4.47;2.75;;;14.20;99.90;;;;;;5078742;28;20039;-65
2023/09/20 06:20:12;;;;;;;7.47;2.70;;;14.40;99.90;;;;;;5085106;28;20031;-65
2023/09/20 06:22:42;;;;;;;7.22;3.28;;;14.60;99.90;;;;;;5069873;28;20052;-65
2023/09/20 06:25:07;;;;;;;5.53;3.03;;;14.80;99.90;;;;;;5084944;28;20033;-66
2023/09/20 06:27:33;;;;;;;4.15;2.90;;;14.90;99.90;;;;;;5085868;28;20040;-65
2023/09/20 06:30:05;;;;;;;9.52;3.08;;;15.10;99.90;;;;;;5072802;28;20043;-67
2023/09/20 06:32:33;;;;;;;3.75;2.83;;;15.20;99.90;;;;;;5083343;28;20040;-64
2023/09/20 06:34:59;;;;;;;5.47;2.75;;;15.30;99.90;;;;;;5083968;28;20028;-66
2023/09/20 06:37:25;;;;;;;6.18;3.00;;;15.40;99.90;;;;;;5075382;28;20051;-64
2023/09/20 06:39:51;;;;;;;7.13;3.10;;;15.60;99.90;;;;;;5072947;28;20473;-64
2023/09/20 06:42:17;;;;;;;6.28;3.00;;;15.70;99.90;;;;;;5083074;28;20615;-64
2023/09/20 06:44:44;;;;;;;4.38;2.90;;;15.80;99.90;;;;;;5091480;28;20063;-64
2023/09/20 06:47:10;;;;;;;3.40;2.38;;;15.90;99.90;;;;;;5096667;28;20027;-64
2023/09/20 06:49:38;;;;;;;7.15;2.50;;;16.00;99.90;;;;;;5107650;28;20461;-64
2023/09/20 06:52:08;;;;;;;4.75;2.33;;;16.10;99.90;;;;;;5110738;28;20027;-64
2023/09/20 06:54:36;;;;;;;7.57;2.88;;;16.20;99.90;;;;;;5094075;28;20031;-64
2023/09/20 06:57:05;;;;;;;6.32;2.80;;;16.30;99.90;;;;;;5098914;28;20030;-65
2023/09/20 06:59:34;;;;;;;9.30;2.80;;;16.50;99.90;;;;;;5102024;28;20063;-64
2023/09/20 07:02:00;;;;;;;6.25;2.60;;;16.50;99.90;;;;;;5105604;28;20028;-66
2023/09/20 07:04:27;;;;;;;7.38;3.00;;;16.60;99.90;;;;;;5100200;28;20452;-64
2023/09/20 07:06:57;;;;;;;5.15;2.55;;;16.60;99.90;;;;;;5102450;28;20024;-64
2023/09/20 07:09:23;;;;;;;6.03;2.65;;;16.70;99.90;;;;;;5110635;28;20110;-64
2023/09/20 07:11:50;;;;;;;4.72;2.67;;;16.90;99.90;;;;;;5100331;28;20103;-64
2023/09/20 07:14:20;;;;;;;5.68;3.10;;;17.30;99.90;;;;;;5099801;28;20035;-64
2023/09/20 07:16:48;;;;;;;8.25;3.00;;;17.50;99.90;;;;;;5094314;28;20030;-64
2023/09/20 07:19:17;;;;;;;6.43;3.35;;;;;;;;;;5091957;28;20499;-65
2023/09/20 07:21:45;;;;;;;5.03;2.88;;;;;;;;;;5098474;28;20034;-64
2023/09/20 07:24:12;;;;;;;6.80;2.67;;;;;;;;;;5104541;28;20023;-65
2023/09/20 07:26:45;;;;;;;7.65;3.00;;;;;;;;;;5106343;28;20038;-64
2023/09/20 07:29:12;;;;;;;6.05;3.08;;;;;;;;;;5092259;28;20020;-65
2023/09/20 07:31:38;;;;;;;5.88;2.97;;;;;;;;;;5102636;28;20026;-64
2023/09/20 07:34:05;;;;;;;7.15;2.97;;;;;;;;;;5096041;28;20021;-64
2023/09/20 07:36:34;;;;;;;5.15;3.03;;;;;;;;;;5097319;28;20051;-64
2023/09/20 07:39:05;;;;;;;5.03;2.53;;;;;;;;;;5107585;28;20016;-67
2023/09/20 07:41:30;;;;;;;8.05;2.72;;;;;;;;;;5101608;28;20024;-64
2023/09/20 07:43:56;;;;;;;3.60;2.60;;;;;;;;;;5101493;28;20026;-65
2023/09/20 07:46:23;;;;;;;6.55;2.60;;;;;;;;;;5103145;28;20051;-64
2023/09/20 07:48:50;;;;;;;5.82;2.83;;;;;;;;;;5107137;28;20031;-64
2023/09/20 07:51:28;;;;;;;3.92;2.53;;;;;;;;;;5095052;28;20116;-64
2023/09/20 07:53:55;;;;;;;6.63;2.17;;;;;;;;;;5092725;28;20032;-64
2023/09/20 07:56:21;;;;;;;6.43;2.60;;;19.40;99.90;;;;;;5108169;28;20119;-64
2023/09/20 07:58:51;;;;;;;4.05;2.05;;;;;;;;;;5095002;28;20107;-64
2023/09/20 08:01:20;;;;;;;5.93;2.08;;;19.70;99.90;;;;;;5099231;28;20024;-64
2023/09/20 08:03:50;;;;;;;6.32;2.28;;;19.50;99.90;;;;;;5094970;28;20104;-64
2023/09/20 08:06:22;;;;;;;4.63;2.40;;;;;;;;;;5102930;28;20350;-65
2023/09/20 08:08:48;;;;;;;7.30;2.28;;;;;;;;;;5086489;28;20102;-65
2023/09/20 08:11:14;;;;;;;4.25;2.15;;;;;;;;;;5103058;28;20057;-65
2023/09/20 08:13:40;;;;;;;4.15;1.75;;;;;;;;;;5103749;28;20136;-64
2023/09/20 08:16:09;;;;;;;5.95;2.33;;;;;;;;;;5095870;28;20011;-64
2023/09/20 08:21:20;;;;;;;8.07;1.77;;;20.50;99.90;;;;;;5106495;28;20092;-64
2023/09/20 08:59:54;;;;;;;11.60;3.47;;;21.60;99.90;;;;;;5092894;28;20197;-72
2023/09/20 09:02:23;;;;;;;3.67;1.90;;;22.00;99.90;;;;;;5088278;28;20575;-74
2023/09/20 09:04:53;;;;;;;2.42;1.63;;;22.00;99.90;;;;;;5104997;28;20027;-68
2023/09/20 09:07:20;;;;;;;;;;;22.00;99.90;;;;;;5102369;28;20016;-72
2023/09/20 09:09:46;;;;;;;4.18;2.13;;;22.00;99.90;;;;;;5097631;28;19988;-73
2023/09/20 09:12:12;;;;;;;4.78;1.77;;;22.10;99.90;;;;;;5084101;28;20492;-72
2023/09/20 09:14:40;;;;;;;2.20;1.67;;;;;;;;;;5093461;28;20163;-73
2023/09/20 09:17:07;;;;;;;2.55;1.67;;;22.40;99.90;;;;;;5093762;28;20029;-69
2023/09/20 09:19:33;;;;;;;5.20;2.08;;;22.60;99.90;;;;;;5101161;28;20031;-69
2023/09/20 09:22:00;;;;;;;3.75;1.63;;;22.80;99.90;;;;;;5108774;28;20081;-70
2023/09/20 09:24:27;;;;;;;1.85;1.40;;;22.90;99.90;;;;;;5093450;28;20107;-69
2023/09/20 09:27:14;;;;;;;2.70;1.60;;;23.10;99.90;;;;;;5089305;28;20055;-70
2023/09/20 09:29:41;;;;;;;1.95;1.58;;;23.20;99.90;;;;;;5085030;28;20457;-68
2023/09/20 09:32:07;;;;;;;3.65;1.60;;;23.20;98.90;;;;;;5107133;28;20480;-67
2023/09/20 09:34:34;;;;;;;3.38;1.65;;;23.10;99.10;;;;;;5101320;28;20054;-68
2023/09/20 09:36:59;;;;;;;1.55;1.33;;;23.00;98.70;;;;;;5105034;28;20024;-70
2023/09/20 09:39:25;;;;;;;4.00;1.90;;;23.00;98.20;;;;;;5104199;28;20048;-70
2023/09/20 09:41:53;;;;;;;2.38;1.60;;;23.00;98.30;;;;;;5102804;28;20032;-70
2023/09/20 09:44:19;;;;;;;3.35;1.67;;;23.00;97.90;;;;;;5096577;28;20031;-71
2023/09/20 09:46:44;;;;;;;5.38;2.00;;;23.10;97.80;;;;;;5087695;28;20032;-70
2023/09/20 09:49:18;;;;;;;2.25;1.88;;;23.10;97.60;;;;;;5094483;28;20036;-68
2023/09/20 09:51:50;;;;;;;2.55;1.70;;;23.10;96.90;;;;;;5099269;28;20039;-70
2023/09/20 09:54:18;;;;;;;3.53;1.80;;;23.10;97.20;;;;;;5105888;28;20415;-70
2023/09/20 09:56:45;;;;;;;6.40;1.80;;;23.20;96.70;;;;;;5085189;28;20101;-70
2023/09/20 09:59:10;;;;;;;1.98;1.67;;;23.30;96.40;;;;;;5099561;28;20028;-68
2023/09/20 10:01:40;;;;;;;3.20;1.70;;;23.40;96.20;;;;;;5101257;28;20153;-68
2023/09/20 10:04:17;;;;;;;6.65;2.50;;;23.40;96.30;;;;;;5102506;28;20023;-69
2023/09/20 10:07:01;;;;;;;10.05;2.70;;;23.50;96.20;;;;;;5109913;28;20044;-68
2023/09/20 10:09:31;;;;;;;7.47;2.20;;;23.60;95.60;;;;;;5100225;28;20036;-69
2023/09/20 10:11:57;;;;;;;4.05;1.88;;;23.70;95.80;;;;;;5108549;28;20016;-71
2023/09/20 10:14:23;;;;;;;3.35;2.10;;;23.80;94.80;;;;;;5100692;28;20032;-68
2023/09/20 10:16:49;;;;;;;3.70;2.20;;;23.90;94.20;;;;;;5098080;28;20091;-68
2023/09/20 10:19:16;;;;;;;6.82;2.53;;;24.00;93.50;;;;;;5100075;28;20039;-69
2023/09/20 10:22:01;;;;;;;4.50;1.83;;;24.10;93.10;;;;;;5093485;28;20047;-68
2023/09/20 10:24:28;;;;;;;2.85;2.00;;;24.10;93.00;;;;;;5094487;28;20384;-68
2023/09/20 10:26:59;;;;;;;3.40;1.67;;;24.20;93.00;;;;;;5092075;28;20432;-68
2023/09/20 10:29:31;;;;;;;2.63;1.80;;;24.20;93.00;;;;;;5100854;28;20020;-68
2023/09/20 10:32:13;;;;;;;2.83;2.50;;;24.30;93.00;;;;;;5096356;28;20032;-71
2023/09/20 10:34:39;;;;;;;2.25;2.00;;;24.30;92.30;;;;;;5097926;28;20024;-68
2023/09/20 10:37:08;;;;;;;2.85;2.40;;;24.30;92.20;;;;;;5101333;28;20032;-69
2023/09/20 10:39:34;;;;;;;4.78;1.95;;;24.40;91.90;;;;;;5111061;28;20035;-68
2023/09/20 10:42:12;;;;;;;2.97;2.35;;;24.40;92.20;;;;;;5100594;28;20438;-71
2023/09/20 10:44:41;;;;;;;3.13;1.88;;;24.50;91.20;;;;;;5099486;28;20144;-68
2023/09/20 10:47:11;;;;;;;2.40;2.07;;;24.60;90.60;;;;;;5107559;28;20028;-68
2023/09/20 10:49:40;;;;;;;1.98;1.85;;;24.60;90.70;;;;;;5101352;28;20079;-68
2023/09/20 10:52:06;;;;;;;2.70;2.13;;;24.70;90.80;;;;;;5102190;28;20096;-68
2023/09/20 10:54:36;;;;;;;2.15;1.90;;;24.70;90.60;;;;;;5085396;28;20070;-69
2023/09/20 10:57:10;;;;;;;3.58;1.70;;;24.90;90.90;;;;;;5087099;28;20480;-69
2023/09/20 10:59:40;;;;;;;2.90;2.08;;;25.00;90.20;;;;;;5092937;28;20194;-69
2023/09/20 11:02:09;;;;;;;2.10;1.83;;;25.10;88.80;;;;;;5099884;28;20132;-68
2023/09/20 11:04:39;;;;;;;6.35;2.75;;;25.20;88.70;;;;;;5106715;28;20336;-68
2023/09/20 11:07:06;;;;;;;2.70;2.35;;;25.30;86.20;;;;;;5105618;28;20028;-68
2023/09/20 11:09:38;;;;;;;3.70;2.38;;;25.30;84.60;;;;;;5101071;28;20089;-68
2023/09/20 11:12:08;;;;;;;4.50;2.58;;;25.40;82.20;;;;;;5104897;28;20031;-69
2023/09/20 11:14:34;;;;;;;;;;;25.40;82.30;;;;;;5083010;28;20055;-68
2023/09/20 11:17:02;;;;;;;2.20;2.00;;;25.50;82.40;;;;;;5097049;28;19904;-71
2023/09/20 11:19:28;;;;;;;2.85;2.22;;;25.70;83.60;;;;;;5104891;28;20076;-69
2023/09/20 11:21:54;;;;;;;3.63;2.70;;;25.80;83.40;;;;;;5110471;28;20028;-69
2023/09/20 11:24:20;;;;;;;2.35;1.90;;;26.00;83.00;;;;;;5093035;28;20644;-68
2023/09/20 11:26:49;;;;;;;4.30;2.20;;;26.20;83.60;;;;;;5082421;28;20111;-68
2023/09/20 11:29:16;;;;;;;2.83;1.83;;;26.40;83.90;;;;;;5082279;28;20031;-68
2023/09/20 11:31:44;;;;;;;2.20;1.95;;;26.70;83.80;;;;;;5099891;28;20074;-68
2023/09/20 11:34:11;;;;;;;2.22;1.92;;;26.80;83.30;;;;;;5097849;28;20042;-68
2023/09/20 11:36:38;;;;;;;2.25;2.05;;;27.00;83.40;;;;;;5101668;28;20027;-68
2023/09/20 11:39:07;;;;;;;3.22;1.90;;;27.30;93.90;;;;;;5107864;28;20465;-70
2023/09/20 11:41:33;;;;;;;3.87;1.90;;;27.40;82.30;;;;;;5101493;28;20040;-70
2023/09/20 11:44:05;;;;;;;2.35;1.92;;;27.50;81.40;;;;;;5096183;28;20479;-71
2023/09/20 11:46:35;;;;;;;2.53;1.67;;;27.70;81.70;;;;;;5101326;28;20082;-69
2023/09/20 11:49:03;;;;;;;4.53;1.70;;;27.80;81.30;;;;;;5090282;28;20392;-70
2023/09/20 11:51:30;;;;;;;1.80;1.70;;;27.90;81.40;;;;;;5109038;28;20478;-70
2023/09/20 11:53:57;;;;;;;1.92;1.50;;;28.00;81.50;;;;;;5097529;28;20051;-71
2023/09/20 11:56:29;;;;;;;3.03;1.70;;;28.10;80.90;;;;;;5080375;28;20028;-70
2023/09/20 11:59:01;;;;;;;2.45;1.40;;;28.30;79.80;;;;;;5087064;28;20032;-70
2023/09/20 12:01:32;;;;;;;1.75;1.65;;;28.50;79.70;;;;;;5094583;28;20084;-70
2023/09/20 12:04:02;;;;;;;1.80;1.70;;;28.80;79.00;;;;;;5088042;28;20027;-72
2023/09/20 12:06:29;;;;;;;1.67;1.27;;;29.20;78.40;;;;;;5100619;28;20492;-69
2023/09/20 12:08:55;;;;;;;3.13;1.45;;;29.40;77.50;;;;;;5103623;28;20121;-70
2023/09/20 12:11:22;;;;;;;3.30;1.30;;;29.50;77.70;;;;;;5102260;28;20468;-69
2023/09/20 12:13:48;;;;;;;1.58;1.40;;;29.70;77.20;;;;;;5092496;28;20029;-70
2023/09/20 12:16:17;;;;;;;2.35;1.25;;;29.80;76.70;;;;;;5097367;28;20380;-69
2023/09/20 12:18:44;;;;;;;2.00;1.50;;;29.80;76.70;;;;;;5103969;28;20098;-70
2023/09/20 12:21:10;;;;;;;2.17;1.00;;;29.90;76.40;;;;;;5103710;28;20032;-69
2023/09/20 12:23:39;;;;;;;1.35;1.20;;;30.00;75.90;;;;;;5096580;28;20043;-69
2023/09/20 12:26:05;;;;;;;3.10;1.27;;;30.20;75.00;;;;;;5096835;28;20037;-69
2023/09/20 12:28:31;;;;;;;3.03;1.30;;;30.20;74.80;;;;;;5105354;28;20040;-68
2023/09/20 12:31:00;;;;;;;1.35;1.25;;;30.20;75.20;;;;;;5080658;28;20024;-71
2023/09/20 12:33:26;;;;;;;1.30;1.20;;;30.40;75.10;;;;;;5101013;28;20027;-69
2023/09/20 12:35:56;;;;;;;3.45;1.35;;;30.50;74.50;;;;;;5097386;28;20464;-68
2023/09/20 12:38:22;;;;;;;1.30;1.20;;;30.90;73.90;;;;;;5090203;28;20028;-70
2023/09/20 12:40:48;;;;;;;2.42;1.42;;;31.30;73.40;;;;;;5097374;28;20542;-69
2023/09/20 12:43:17;;;;;;;2.15;1.23;;;31.60;73.90;;;;;;5098865;28;20028;-69
2023/09/20 12:45:43;;;;;;;2.17;1.00;;;31.90;73.00;;;;;;5104745;28;20417;-71
2023/09/20 12:48:12;;;;;;;3.17;1.20;;;32.20;72.20;;;;;;5093008;28;20032;-70
2023/09/20 12:50:38;;;;;;;1.30;1.20;;;32.50;71.70;;;;;;5100221;28;20395;-69
2023/09/20 12:53:06;;;;;;;1.40;1.30;;;32.80;71.20;;;;;;5097380;28;20025;-69
2023/09/20 12:55:38;;;;;;;5.63;1.20;;;32.90;69.80;;;;;;5088959;28;20032;-69
2023/09/20 12:58:06;;;;;;;1.45;1.25;;;32.80;69.60;;;;;;5097239;28;20047;-70
2023/09/20 13:00:35;;;;;;;3.75;1.48;;;32.60;69.00;;;;;;5099980;28;20528;-69
2023/09/20 13:03:03;;;;;;;1.65;1.55;;;32.60;69.00;;;;;;5094838;28;20028;-72
2023/09/20 13:05:29;;;;;;;1.27;1.17;;;32.30;69.20;;;;;;5101698;28;20028;-69
2023/09/20 13:07:56;;;;;;;2.05;1.40;;;32.00;73.30;;;;;;5101785;28;20077;-68
2023/09/20 13:10:22;;;;;;;1.90;1.52;;;;;;;;;;5100884;28;20028;-67
2023/09/20 13:12:48;;;;;;;1.70;1.60;;;31.20;68.80;;;;;;5105931;28;20020;-70
2023/09/20 13:15:14;;;;;;;1.88;1.17;;;31.10;69.90;;;;;;5103088;28;20099;-70
2023/09/20 13:17:44;;;;;;;5.13;1.50;;;31.00;70.30;;;;;;5099459;28;20085;-70
2023/09/20 13:20:13;;;;;;;1.70;1.10;;;30.90;70.00;;;;;;5105896;28;20036;-67
2023/09/20 13:22:42;;;;;;;1.48;1.17;;;30.90;70.30;;;;;;5106654;28;20020;-67
2023/09/20 13:25:09;;;;;;;1.40;1.25;;;30.70;69.90;;;;;;5098632;28;20027;-70
2023/09/20 13:27:35;;;;;;;1.38;1.00;;;30.50;70.50;;;;;;5084461;28;20032;-70
2023/09/20 13:30:10;;;;;;;1.35;1.25;;;30.40;71.00;;;;;;5102394;28;20051;-72
2023/09/20 13:32:36;;;;;;;4.30;1.25;;;30.40;70.90;;;;;;5105105;28;20022;-70
2023/09/20 13:35:03;;;;;;;2.22;1.30;;;30.30;71.20;;;;;;5097641;28;20088;-72
2023/09/20 13:37:29;;;;;;;4.18;1.50;;;30.20;69.70;;;;;;5105039;28;20079;-70
2023/09/20 13:39:54;;;;;;;1.50;1.40;;;30.20;69.50;;;;;;5111664;28;20111;-70
2023/09/20 13:42:20;;;;;;;3.63;1.60;;;30.30;69.60;;;;;;5113143;28;20023;-70
2023/09/20 13:44:50;;;;;;;1.13;1.10;;;30.40;68.90;;;;;;5095459;28;20044;-70
2023/09/20 13:47:18;;;;;;;1.80;1.23;;;30.40;69.00;;;;;;5106711;28;20311;-70
2023/09/20 13:49:43;;;;;;;1.55;1.23;;;30.30;69.10;;;;;;5112996;28;20369;-70
2023/09/20 13:52:10;;;;;;;0.95;0.95;;;30.30;69.30;;;;;;5099837;28;20050;-70
2023/09/20 13:54:36;;;;;;;1.90;1.33;;;30.30;70.10;;;;;;5090375;28;20047;-69
2023/09/20 13:57:02;;;;;;;2.30;1.10;;;30.40;69.30;;;;;;5098049;28;20459;-68
2023/09/20 13:59:30;;;;;;;1.50;1.27;;;30.40;69.10;;;;;;5099190;28;20044;-67